createdAt,value
2023-05-05T00:01:04.280Z,7.05
2023-05-05T00:03:35.582Z,7.47
2023-05-05T00:08:34.080Z,7.13
2023-05-05T00:11:05.156Z,8.13
2023-05-05T00:13:36.091Z,10.77
2023-05-05T00:16:05.342Z,6.45
2023-05-05T00:18:35.586Z,6.55
2023-05-05T00:21:04.469Z,9.63
2023-05-05T00:23:32.825Z,5.88
2023-05-05T00:26:01.220Z,9.15
2023-05-05T00:28:29.399Z,9.38
2023-05-05T00:30:57.672Z,8.93
2023-05-05T00:33:26.045Z,8.23
2023-05-05T00:35:56.258Z,7.80
2023-05-05T00:38:26.240Z,9.80
2023-05-05T00:40:55.328Z,6.93
2023-05-05T00:43:23.982Z,10.05
2023-05-05T00:45:58.490Z,9.57
2023-05-05T00:48:27.788Z,8.20
2023-05-05T00:51:00.382Z,6.97
2023-05-05T00:53:29.116Z,7.78
2023-05-05T00:55:59.792Z,8.32
2023-05-05T00:58:29.211Z,8.82
2023-05-05T01:00:57.268Z,7.07
2023-05-05T01:03:36.042Z,9.45
2023-05-05T01:06:16.011Z,8.82
2023-05-05T01:08:53.463Z,14.93
2023-05-05T01:11:27.354Z,7.47
2023-05-05T01:14:02.578Z,7.80
2023-05-05T01:16:37.340Z,8.95
2023-05-05T01:19:15.608Z,9.18
2023-05-05T01:21:50.387Z,9.55
2023-05-05T01:24:47.123Z,11.88
2023-05-05T01:27:43.144Z,6.47
2023-05-05T01:30:21.892Z,8.48
2023-05-05T01:32:55.232Z,9.02
2023-05-05T01:35:30.575Z,6.78
2023-05-05T01:38:04.826Z,8.25
2023-05-05T01:40:39.122Z,7.95
2023-05-05T01:43:09.746Z,7.30
2023-05-05T01:45:40.133Z,10.68
2023-05-05T01:48:15.677Z,7.72
2023-05-05T01:50:46.555Z,7.35
2023-05-05T01:53:14.893Z,10.05
2023-05-05T01:55:44.077Z,7.68
2023-05-05T01:58:15.037Z,9.35
2023-05-05T02:00:44.326Z,10.10
2023-05-05T02:03:17.519Z,6.80
2023-05-05T02:05:48.383Z,7.40
2023-05-05T02:08:16.825Z,9.73
2023-05-05T02:10:46.046Z,8.52
2023-05-05T02:13:19.075Z,9.63
2023-05-05T02:15:48.175Z,7.57
2023-05-05T02:18:19.654Z,10.05
2023-05-05T02:20:49.148Z,10.43
2023-05-05T02:23:17.514Z,9.40
2023-05-05T02:25:54.011Z,9.50
2023-05-05T02:28:26.677Z,9.32
2023-05-05T02:30:58.628Z,9.07
2023-05-05T02:33:31.094Z,9.90
2023-05-05T02:36:10.206Z,9.17
2023-05-05T02:38:43.007Z,9.90
2023-05-05T02:43:43.898Z,9.43
2023-05-05T02:46:13.445Z,10.60
2023-05-05T02:48:47.064Z,9.48
2023-05-05T02:51:15.132Z,9.38
2023-05-05T02:53:49.229Z,8.73
2023-05-05T02:56:25.696Z,9.88
2023-05-05T02:59:09.288Z,11.48
2023-05-05T03:01:47.312Z,11.20
2023-05-05T03:04:24.665Z,9.57
2023-05-05T03:06:59.117Z,12.52
2023-05-05T03:09:34.781Z,10.32
2023-05-05T03:12:05.964Z,10.88
2023-05-05T03:14:46.886Z,10.05
2023-05-05T03:17:18.933Z,11.40
2023-05-05T03:19:49.819Z,12.00
2023-05-05T03:22:21.197Z,10.70
2023-05-05T03:24:51.422Z,12.25
2023-05-05T03:27:23.206Z,10.88
2023-05-05T03:29:52.613Z,9.25
2023-05-05T03:32:23.651Z,10.02
2023-05-05T03:34:56.711Z,8.35
2023-05-05T03:37:31.000Z,11.40
2023-05-05T03:40:00.974Z,8.07
2023-05-05T03:42:29.887Z,11.25
2023-05-05T03:44:58.601Z,9.27
2023-05-05T03:47:27.164Z,11.38
2023-05-05T03:50:00.424Z,12.68
2023-05-05T03:52:31.100Z,12.80
2023-05-05T03:55:00.539Z,11.07
2023-05-05T03:57:29.305Z,11.38
2023-05-05T03:59:59.131Z,12.95
2023-05-05T04:02:29.198Z,11.80
2023-05-05T04:04:59.213Z,13.23
2023-05-05T04:07:28.885Z,11.25
2023-05-05T04:09:59.963Z,12.25
2023-05-05T04:12:29.236Z,11.85
2023-05-05T04:14:59.085Z,12.10
2023-05-05T04:17:27.242Z,13.30
2023-05-05T04:19:56.628Z,13.95
2023-05-05T04:22:29.855Z,11.13
2023-05-05T04:24:57.981Z,12.20
2023-05-05T04:27:29.080Z,8.15
2023-05-05T04:29:58.638Z,9.60
2023-05-05T04:32:27.211Z,11.95
2023-05-05T04:34:56.019Z,11.98
2023-05-05T04:37:25.220Z,12.70
2023-05-05T04:39:55.337Z,14.20
2023-05-05T04:42:24.289Z,10.80
2023-05-05T04:44:52.596Z,15.85
2023-05-05T04:47:21.039Z,13.07
2023-05-05T04:49:49.733Z,11.23
2023-05-05T04:52:18.609Z,10.57
2023-05-05T04:54:47.321Z,16.95
2023-05-05T04:57:19.670Z,13.13
2023-05-05T04:59:47.895Z,11.02
2023-05-05T05:02:17.318Z,12.07
2023-05-05T05:04:45.598Z,12.15
2023-05-05T05:07:17.384Z,14.32
2023-05-05T05:09:45.753Z,9.70
2023-05-05T05:12:18.098Z,11.82
2023-05-05T05:14:49.449Z,17.05
2023-05-05T05:17:17.769Z,14.00
2023-05-05T05:19:46.258Z,12.13
2023-05-05T05:22:15.144Z,13.95
2023-05-05T05:24:53.576Z,13.68
2023-05-05T05:27:23.152Z,16.23
2023-05-05T05:29:57.210Z,14.95
2023-05-05T05:32:26.772Z,15.98
2023-05-05T05:34:54.982Z,20.02
2023-05-05T05:37:25.499Z,18.10
2023-05-05T05:39:55.659Z,16.30
2023-05-05T05:42:25.249Z,18.35
2023-05-05T05:44:56.964Z,14.55
2023-05-05T05:47:26.772Z,16.27
2023-05-05T05:49:55.596Z,15.05
2023-05-05T05:52:24.702Z,12.52
2023-05-05T05:54:53.409Z,12.23
2023-05-05T05:57:23.683Z,13.07
2023-05-05T05:59:54.976Z,12.18
2023-05-05T06:02:26.418Z,9.98
2023-05-05T06:04:55.074Z,14.75
2023-05-05T06:07:24.671Z,12.68
2023-05-05T06:09:55.450Z,13.13
2023-05-05T06:12:23.601Z,9.82
2023-05-05T06:14:55.469Z,11.65
2023-05-05T06:17:25.689Z,12.25
2023-05-05T06:19:54.604Z,13.30
2023-05-05T06:22:23.475Z,13.70
2023-05-05T06:24:54.281Z,11.20
2023-05-05T06:27:24.429Z,13.10
2023-05-05T06:29:53.773Z,12.85
2023-05-05T06:32:22.047Z,11.27
2023-05-05T06:34:51.972Z,16.40
2023-05-05T06:37:20.447Z,13.40
2023-05-05T06:39:48.923Z,13.02
2023-05-05T06:42:17.229Z,13.55
2023-05-05T06:44:46.966Z,15.70
2023-05-05T06:47:15.511Z,15.93
2023-05-05T06:49:43.840Z,15.63
2023-05-05T06:52:14.815Z,18.45
2023-05-05T06:54:45.306Z,17.77
2023-05-05T06:57:13.486Z,22.33
2023-05-05T06:59:42.098Z,13.77
2023-05-05T07:02:10.938Z,18.02
2023-05-05T07:04:41.403Z,14.77
2023-05-05T07:07:11.973Z,17.45
2023-05-05T07:09:41.664Z,20.42
2023-05-05T07:12:10.704Z,14.15
2023-05-05T07:14:40.053Z,19.95
2023-05-05T07:17:09.119Z,16.15
2023-05-05T07:19:37.601Z,17.05
2023-05-05T07:22:06.092Z,17.05
2023-05-05T07:24:34.354Z,16.38
2023-05-05T07:27:04.434Z,17.20
2023-05-05T07:29:33.719Z,14.65
2023-05-05T07:32:04.944Z,15.95
2023-05-05T07:34:34.540Z,15.50
2023-05-05T07:37:04.018Z,14.85
2023-05-05T07:39:35.051Z,13.88
2023-05-05T07:42:07.633Z,13.90
2023-05-05T07:44:35.872Z,14.68
2023-05-05T07:47:04.436Z,11.38
2023-05-05T07:49:34.072Z,14.18
2023-05-05T07:52:02.383Z,15.65
2023-05-05T07:54:30.888Z,16.35
2023-05-05T07:57:00.068Z,14.05
2023-05-05T07:59:31.811Z,13.88
2023-05-05T08:01:59.990Z,12.03
2023-05-05T08:04:28.096Z,10.05
2023-05-05T08:06:56.208Z,8.13
2023-05-05T08:09:27.027Z,8.27
2023-05-05T08:11:55.578Z,11.95
2023-05-05T08:14:24.298Z,10.07
2023-05-05T08:16:54.341Z,11.70
2023-05-05T08:19:29.391Z,13.98
2023-05-05T08:22:01.063Z,8.68
2023-05-05T08:24:30.860Z,12.07
2023-05-05T08:26:59.099Z,8.90
2023-05-05T08:29:27.798Z,10.02
2023-05-05T08:31:57.666Z,9.27
2023-05-05T08:34:29.571Z,11.45
2023-05-05T08:36:57.695Z,13.18
2023-05-05T08:39:27.374Z,10.48
2023-05-05T08:41:56.185Z,13.00
2023-05-05T08:44:28.870Z,9.00
2023-05-05T08:47:03.654Z,8.00
2023-05-05T08:49:41.176Z,9.02
2023-05-05T08:52:11.652Z,8.15
2023-05-05T08:54:49.157Z,8.32
2023-05-05T08:57:21.245Z,8.30
2023-05-05T08:59:53.006Z,8.60
2023-05-05T09:02:28.032Z,8.98
2023-05-05T09:04:56.274Z,8.30
2023-05-05T09:07:27.078Z,7.40
2023-05-05T09:09:55.312Z,9.40
2023-05-05T09:12:25.303Z,7.20
2023-05-05T09:14:59.419Z,9.15
2023-05-05T09:17:29.465Z,10.77
2023-05-05T09:20:07.226Z,9.82
2023-05-05T09:22:38.458Z,9.85
2023-05-05T09:25:08.209Z,8.25
2023-05-05T09:27:41.843Z,11.57
2023-05-05T09:30:16.090Z,7.93
2023-05-05T09:32:58.590Z,6.32
2023-05-05T09:37:56.872Z,8.90
2023-05-05T09:40:25.220Z,10.85
2023-05-05T09:43:02.578Z,9.45
2023-05-05T09:45:30.887Z,8.75
2023-05-05T09:48:01.129Z,8.38
2023-05-05T09:50:32.644Z,8.77
2023-05-05T09:53:02.265Z,9.30
2023-05-05T09:55:32.108Z,7.57
2023-05-05T09:58:19.563Z,11.38
2023-05-05T10:00:48.283Z,10.80
2023-05-05T10:03:19.700Z,22.35
2023-05-05T10:05:52.374Z,11.38
2023-05-05T10:08:21.944Z,8.60
2023-05-05T10:10:56.452Z,7.03
2023-05-05T10:13:26.634Z,8.20
2023-05-05T10:15:55.849Z,8.02
2023-05-05T10:18:33.853Z,9.27
2023-05-05T10:21:03.173Z,9.35
2023-05-05T10:23:40.152Z,7.25
2023-05-05T10:26:11.634Z,10.20
2023-05-05T10:28:46.604Z,14.43
2023-05-05T10:31:25.760Z,7.68
2023-05-05T10:34:03.293Z,9.13
2023-05-05T10:36:32.532Z,7.28
2023-05-05T10:39:01.771Z,7.90
2023-05-05T10:41:30.829Z,6.28
2023-05-05T10:44:02.876Z,8.50
2023-05-05T10:46:32.821Z,11.75
2023-05-05T10:51:45.404Z,12.15
2023-05-05T10:54:18.514Z,14.38
2023-05-05T10:56:49.624Z,12.85
2023-05-05T10:59:47.265Z,10.23
2023-05-05T11:02:26.364Z,6.53
2023-05-05T11:05:18.706Z,4.78
2023-05-05T11:07:47.708Z,4.80
2023-05-05T11:10:19.034Z,6.40
2023-05-05T11:13:18.988Z,6.03
2023-05-05T11:15:49.019Z,6.82
2023-05-05T11:18:33.906Z,7.38
2023-05-05T11:21:19.201Z,4.82
2023-05-05T11:23:51.762Z,6.65
2023-05-05T11:26:49.911Z,5.18
2023-05-05T11:29:19.500Z,5.13
2023-05-05T11:31:48.936Z,2.28
2023-05-05T11:34:29.027Z,4.20
2023-05-05T11:37:04.051Z,4.72
2023-05-05T11:39:46.683Z,4.65
2023-05-05T11:42:24.981Z,7.93
2023-05-05T11:44:54.636Z,5.05
2023-05-05T11:47:34.895Z,6.13
2023-05-05T11:50:21.019Z,3.35
2023-05-05T11:52:51.037Z,4.88
2023-05-05T11:55:23.415Z,4.22
2023-05-05T12:00:20.193Z,7.03
2023-05-05T12:02:48.309Z,5.18
2023-05-05T12:05:21.799Z,8.07
2023-05-05T12:07:58.378Z,4.80
2023-05-05T12:10:26.825Z,6.72
2023-05-05T12:12:56.479Z,6.50
2023-05-05T12:15:33.582Z,8.57
2023-05-05T12:18:03.296Z,8.48
2023-05-05T12:20:36.535Z,7.93
2023-05-05T12:23:07.660Z,6.35
2023-05-05T12:25:39.339Z,6.20
2023-05-05T12:28:12.413Z,5.70
2023-05-05T12:30:41.509Z,6.70
2023-05-05T12:33:13.390Z,6.30
2023-05-05T12:38:15.954Z,6.00
2023-05-05T12:40:48.365Z,6.03
2023-05-05T12:46:08.921Z,7.07
2023-05-05T12:51:18.536Z,7.53
2023-05-05T12:53:48.706Z,9.45
2023-05-05T12:56:33.616Z,12.20
2023-05-05T12:59:05.070Z,6.20
2023-05-05T13:01:36.298Z,7.40
2023-05-05T13:04:11.911Z,7.45
2023-05-05T13:06:41.046Z,6.80
2023-05-05T13:09:11.138Z,6.68
2023-05-05T13:11:39.931Z,7.75
2023-05-05T13:14:09.535Z,5.78
2023-05-05T13:16:39.225Z,8.43
2023-05-05T13:19:07.642Z,5.97
2023-05-05T13:21:36.088Z,5.18
2023-05-05T13:24:21.453Z,5.07
2023-05-05T13:26:58.490Z,9.73
2023-05-05T13:29:31.412Z,3.92
2023-05-05T13:32:03.546Z,6.10
2023-05-05T13:34:32.949Z,6.77
2023-05-05T13:37:04.608Z,5.35
2023-05-05T13:39:38.092Z,5.28
2023-05-05T13:42:08.469Z,6.28
2023-05-05T13:44:36.577Z,4.32
2023-05-05T13:47:08.321Z,5.30
2023-05-05T13:49:36.393Z,8.10
2023-05-05T13:52:06.050Z,7.88
2023-05-05T13:54:34.054Z,6.35
2023-05-05T13:57:03.359Z,5.43
2023-05-05T13:59:33.306Z,6.32
2023-05-05T14:02:05.972Z,5.25
2023-05-05T14:04:37.425Z,6.22
2023-05-05T14:07:08.313Z,7.68
2023-05-05T14:09:36.563Z,7.35
2023-05-05T14:12:06.338Z,8.20
2023-05-05T14:14:36.019Z,9.23
2023-05-05T14:17:04.098Z,7.32
2023-05-05T14:19:32.636Z,7.38
2023-05-05T14:22:01.879Z,5.00
2023-05-05T14:24:30.194Z,3.90
2023-05-05T14:26:59.365Z,5.63
2023-05-05T14:29:27.739Z,3.55
2023-05-05T14:31:57.453Z,5.10
2023-05-05T14:34:27.512Z,7.15
2023-05-05T14:36:57.551Z,2.85
2023-05-05T14:39:26.040Z,2.88
2023-05-05T14:41:54.016Z,4.70
2023-05-05T14:44:26.605Z,4.15
2023-05-05T14:46:58.150Z,4.38
2023-05-05T14:49:26.183Z,5.90
2023-05-05T14:51:56.113Z,4.55
2023-05-05T14:54:28.705Z,3.95
2023-05-05T14:56:58.495Z,4.20
2023-05-05T14:59:27.380Z,3.55
2023-05-05T15:01:58.150Z,5.38
2023-05-05T15:04:26.281Z,6.10
2023-05-05T15:06:55.694Z,6.28
2023-05-05T15:09:24.094Z,3.13
2023-05-05T15:11:53.502Z,6.80
2023-05-05T15:14:21.751Z,4.78
2023-05-05T15:16:49.805Z,3.38
2023-05-05T15:19:19.441Z,4.65
2023-05-05T15:21:52.984Z,7.00
2023-05-05T15:24:21.797Z,5.05
2023-05-05T15:26:50.227Z,5.57
2023-05-05T15:29:18.598Z,4.75
2023-05-05T15:31:46.643Z,3.20
2023-05-05T15:34:14.893Z,3.78
2023-05-05T15:36:44.296Z,5.30
2023-05-05T15:39:12.290Z,4.97
2023-05-05T15:41:40.434Z,3.92
2023-05-05T15:44:09.252Z,2.55
2023-05-05T15:46:40.602Z,4.63
2023-05-05T15:49:08.754Z,2.70
2023-05-05T15:51:36.952Z,2.10
2023-05-05T15:54:06.720Z,3.33
2023-05-05T15:56:34.854Z,5.03
2023-05-05T15:59:05.137Z,4.30
2023-05-05T16:01:36.935Z,3.80
2023-05-05T16:04:06.140Z,5.32
2023-05-05T16:06:34.683Z,3.53
2023-05-05T16:09:37.515Z,7.95
2023-05-05T16:12:06.505Z,3.35
2023-05-05T16:14:36.469Z,4.65
2023-05-05T16:17:04.819Z,4.22
2023-05-05T16:19:33.013Z,2.70
2023-05-05T16:22:01.457Z,4.32
2023-05-05T16:24:31.010Z,4.80
2023-05-05T16:26:59.398Z,5.15
2023-05-05T16:29:27.646Z,3.03
2023-05-05T16:31:56.259Z,3.72
2023-05-05T16:34:25.720Z,6.03
2023-05-05T16:36:57.937Z,3.28
2023-05-05T16:39:28.761Z,2.15
2023-05-05T16:41:58.693Z,2.15
2023-05-05T16:44:26.970Z,3.55
2023-05-05T16:46:56.749Z,3.22
2023-05-05T16:49:25.203Z,3.78
2023-05-05T16:51:53.665Z,3.10
2023-05-05T16:54:21.770Z,3.55
2023-05-05T16:56:49.791Z,2.20
2023-05-05T16:59:19.727Z,4.47
2023-05-05T17:01:48.082Z,3.10
2023-05-05T17:04:16.380Z,2.30
2023-05-05T17:06:45.860Z,2.45
2023-05-05T17:09:14.152Z,5.65
2023-05-05T17:11:42.651Z,4.38
2023-05-05T17:14:14.264Z,2.67
2023-05-05T17:16:44.048Z,5.17
2023-05-05T17:19:12.346Z,4.50
2023-05-05T17:21:46.374Z,7.72
2023-05-05T17:24:16.035Z,2.97
2023-05-05T17:26:45.468Z,3.15
2023-05-05T17:29:22.221Z,3.25
2023-05-05T17:31:51.712Z,1.40
2023-05-05T17:34:19.919Z,2.35
2023-05-05T17:36:51.131Z,2.20
2023-05-05T17:39:22.624Z,3.88
2023-05-05T17:41:52.321Z,2.85
2023-05-05T17:44:20.653Z,2.00
2023-05-05T17:46:51.458Z,1.50
2023-05-05T17:49:21.527Z,2.55
2023-05-05T17:51:50.077Z,3.97
2023-05-05T17:54:18.584Z,2.90
2023-05-05T17:56:46.992Z,3.88
2023-05-05T17:59:15.074Z,4.60
2023-05-05T18:01:43.953Z,4.60
2023-05-05T18:04:14.231Z,3.40
2023-05-05T18:06:42.986Z,2.85
2023-05-05T18:09:16.271Z,2.65
2023-05-05T18:11:44.776Z,5.13
2023-05-05T18:14:14.666Z,3.90
2023-05-05T18:16:47.631Z,3.47
2023-05-05T18:19:20.778Z,2.13
2023-05-05T18:21:48.953Z,4.43
2023-05-05T18:24:20.584Z,3.35
2023-05-05T18:26:50.320Z,4.50
2023-05-05T18:29:18.468Z,2.72
2023-05-05T18:31:51.563Z,4.10
2023-05-05T18:34:24.064Z,7.32
2023-05-05T18:36:54.488Z,11.20
2023-05-05T18:39:22.992Z,5.80
2023-05-05T18:41:51.212Z,18.48
2023-05-05T18:44:19.564Z,24.63
2023-05-05T18:46:51.179Z,13.02
2023-05-05T18:49:19.869Z,7.83
2023-05-05T18:51:49.725Z,5.40
2023-05-05T18:54:21.678Z,3.97
2023-05-05T18:56:49.683Z,3.78
2023-05-05T18:59:18.523Z,5.15
2023-05-05T19:01:46.964Z,3.53
2023-05-05T19:04:30.165Z,4.28
2023-05-05T19:07:02.120Z,3.80
2023-05-05T19:09:32.619Z,5.30
2023-05-05T19:12:02.382Z,4.28
2023-05-05T19:14:31.015Z,5.13
2023-05-05T19:17:00.130Z,5.40
2023-05-05T19:19:30.889Z,5.65
2023-05-05T19:21:59.998Z,5.55
2023-05-05T19:24:31.537Z,4.95
2023-05-05T19:27:00.125Z,4.88
2023-05-05T19:29:31.007Z,4.68
2023-05-05T19:31:59.152Z,2.72
2023-05-05T19:34:27.774Z,4.68
2023-05-05T19:36:56.258Z,2.58
2023-05-05T19:39:24.507Z,4.45
2023-05-05T19:41:54.406Z,6.70
2023-05-05T19:44:23.899Z,5.28
2023-05-05T19:46:53.021Z,7.38
2023-05-05T19:49:21.324Z,5.38
2023-05-05T19:51:50.312Z,5.25
2023-05-05T19:54:18.967Z,6.90
2023-05-05T19:56:47.505Z,4.25
2023-05-05T19:59:21.281Z,3.97
2023-05-05T20:01:49.603Z,6.72
2023-05-05T20:04:18.322Z,5.47
2023-05-05T20:06:48.600Z,3.60
2023-05-05T20:09:20.438Z,3.72
2023-05-05T20:11:48.948Z,4.72
2023-05-05T20:14:17.711Z,5.30
2023-05-05T20:16:47.861Z,6.68
2023-05-05T20:19:23.140Z,7.05
2023-05-05T20:21:51.209Z,5.88
2023-05-05T20:24:19.844Z,4.80
2023-05-05T20:26:50.220Z,8.00
2023-05-05T20:29:19.708Z,5.38
2023-05-05T20:31:49.598Z,5.50
2023-05-05T20:34:18.004Z,4.40
2023-05-05T20:36:46.111Z,6.22
2023-05-05T20:39:29.331Z,6.18
2023-05-05T20:41:57.444Z,5.25
2023-05-05T20:44:27.151Z,5.30
2023-05-05T20:46:56.753Z,5.03
2023-05-05T20:49:26.490Z,3.90
2023-05-05T20:51:54.660Z,5.25
2023-05-05T20:54:25.773Z,4.20
2023-05-05T20:56:58.083Z,6.28
2023-05-05T20:59:27.971Z,5.38
2023-05-05T21:01:58.361Z,4.88
2023-05-05T21:04:26.780Z,4.47
2023-05-05T21:06:55.092Z,6.15
2023-05-05T21:09:23.768Z,4.75
2023-05-05T21:11:52.271Z,6.22
2023-05-05T21:14:23.350Z,4.35
2023-05-05T21:16:51.854Z,7.22
2023-05-05T21:19:23.500Z,5.70
2023-05-05T21:21:51.707Z,5.43
2023-05-05T21:24:22.346Z,6.10
2023-05-05T21:26:53.764Z,5.72
2023-05-05T21:29:38.556Z,6.43
2023-05-05T21:32:08.735Z,5.97
2023-05-05T21:34:38.724Z,6.85
2023-05-05T21:37:11.944Z,6.05
2023-05-05T21:39:39.953Z,6.88
2023-05-05T21:42:08.602Z,5.88
2023-05-05T21:44:36.638Z,8.70
2023-05-05T21:47:06.199Z,6.80
2023-05-05T21:49:34.312Z,7.72
2023-05-05T21:52:03.956Z,6.63
2023-05-05T21:54:32.080Z,9.02
2023-05-05T21:57:00.208Z,6.07
2023-05-05T21:59:28.528Z,4.45
2023-05-05T22:01:57.932Z,8.60
2023-05-05T22:04:26.206Z,8.75
2023-05-05T22:06:54.516Z,7.18
2023-05-05T22:09:24.890Z,8.10
2023-05-05T22:11:53.410Z,7.82
2023-05-05T22:14:24.310Z,6.30
2023-05-05T22:16:53.389Z,7.72
2023-05-05T22:19:23.369Z,7.32
2023-05-05T22:21:52.103Z,7.78
2023-05-05T22:24:20.668Z,6.63
2023-05-05T22:26:50.499Z,5.95
2023-05-05T22:29:20.004Z,7.30
2023-05-05T22:31:48.352Z,9.15
2023-05-05T22:34:18.734Z,6.60
2023-05-05T22:36:47.021Z,7.95
2023-05-05T22:39:18.436Z,8.25
2023-05-05T22:41:54.628Z,9.18
2023-05-05T22:44:25.204Z,7.85
2023-05-05T22:46:53.649Z,10.43
2023-05-05T22:49:29.215Z,10.82
2023-05-05T22:52:05.003Z,9.48
2023-05-05T22:54:33.494Z,10.43
2023-05-05T22:57:09.730Z,13.40
2023-05-05T22:59:43.717Z,8.75
2023-05-05T23:02:13.525Z,9.73
2023-05-05T23:04:42.927Z,9.52
2023-05-05T23:07:11.704Z,9.23
2023-05-05T23:09:42.072Z,8.85
2023-05-05T23:12:12.956Z,7.63
2023-05-05T23:14:42.947Z,10.80
2023-05-05T23:17:11.148Z,7.43
2023-05-05T23:19:40.040Z,10.10
2023-05-05T23:22:08.495Z,9.50
2023-05-05T23:24:36.655Z,8.30
2023-05-05T23:27:04.884Z,8.80
2023-05-05T23:29:35.761Z,7.47
2023-05-05T23:32:03.803Z,10.13
2023-05-05T23:34:32.713Z,7.90
2023-05-05T23:37:02.945Z,9.27
2023-05-05T23:39:34.620Z,9.02
2023-05-05T23:42:02.642Z,9.93
2023-05-05T23:44:30.723Z,10.07
2023-05-05T23:47:00.059Z,7.38
2023-05-05T23:49:28.284Z,8.77
2023-05-05T23:52:01.733Z,8.00
2023-05-05T23:54:29.916Z,9.50
2023-05-05T23:56:58.890Z,10.38
2023-05-05T23:59:27.498Z,9.38
